sensor_id;sensor_type;location;lat;lon;timestamp;P1;P2;P0
78512;PMS5003;67809;55.034;73.462;2023-04-02T00:07:49;6.00;5.00;4.00
78512;PMS5003;67809;55.034;73.462;2023-04-02T00:13:00;9.00;7.00;3.00
78512;PMS5003;67809;55.034;73.462;2023-04-02T00:15:37;8.00;6.00;4.00
78512;PMS5003;67809;55.034;73.462;2023-04-02T00:18:04;10.00;9.00;4.00
78512;PMS5003;67809;55.034;73.462;2023-04-02T00:20:36;10.00;6.00;4.00
78512;PMS5003;67809;55.034;73.462;2023-04-02T00:23:05;10.50;7.00;4.00
78512;PMS5003;67809;55.034;73.462;2023-04-02T00:25:42;9.00;7.00;4.00
78512;PMS5003;67809;55.034;73.462;2023-04-02T00:28:14;10.00;8.00;5.00
78512;PMS5003;67809;55.034;73.462;2023-04-02T00:30:54;11.00;8.00;4.75
78512;PMS5003;67809;55.034;73.462;2023-04-02T00:33:31;11.00;8.50;5.75
78512;PMS5003;67809;55.034;73.462;2023-04-02T00:35:57;14.00;11.00;6.00
78512;PMS5003;67809;55.034;73.462;2023-04-02T00:38:26;13.00;9.00;5.00
78512;PMS5003;67809;55.034;73.462;2023-04-02T00:40:55;11.00;9.00;5.00
78512;PMS5003;67809;55.034;73.462;2023-04-02T00:43:22;12.00;9.25;6.00
78512;PMS5003;67809;55.034;73.462;2023-04-02T00:45:52;13.00;10.00;6.00
78512;PMS5003;67809;55.034;73.462;2023-04-02T00:48:32;16.00;12.00;7.00
78512;PMS5003;67809;55.034;73.462;2023-04-02T00:51:13;13.50;10.50;6.00
78512;PMS5003;67809;55.034;73.462;2023-04-02T00:53:40;14.00;11.00;6.00
78512;PMS5003;67809;55.034;73.462;2023-04-02T00:56:24;11.00;9.00;5.00
78512;PMS5003;67809;55.034;73.462;2023-04-02T00:58:57;13.75;11.00;7.00
78512;PMS5003;67809;55.034;73.462;2023-04-02T01:01:25;14.50;11.25;8.00
78512;PMS5003;67809;55.034;73.462;2023-04-02T01:03:52;16.00;12.00;7.00
78512;PMS5003;67809;55.034;73.462;2023-04-02T01:06:27;16.00;13.00;7.00
78512;PMS5003;67809;55.034;73.462;2023-04-02T01:11:53;18.00;14.00;9.00
78512;PMS5003;67809;55.034;73.462;2023-04-02T01:16:59;20.00;15.00;9.00
78512;PMS5003;67809;55.034;73.462;2023-04-02T01:22:04;16.50;13.00;7.25
78512;PMS5003;67809;55.034;73.462;2023-04-02T01:24:33;16.00;13.00;7.25
78512;PMS5003;67809;55.034;73.462;2023-04-02T01:29:52;13.00;11.00;8.00
78512;PMS5003;67809;55.034;73.462;2023-04-02T01:32:23;20.00;14.50;8.00
78512;PMS5003;67809;55.034;73.462;2023-04-02T01:34:50;17.25;12.50;7.00
78512;PMS5003;67809;55.034;73.462;2023-04-02T01:40:03;15.75;12.50;8.00
78512;PMS5003;67809;55.034;73.462;2023-04-02T01:45:18;15.00;12.00;8.00
78512;PMS5003;67809;55.034;73.462;2023-04-02T01:47:46;17.00;12.00;8.00
78512;PMS5003;67809;55.034;73.462;2023-04-02T01:52:58;15.50;11.75;6.50
78512;PMS5003;67809;55.034;73.462;2023-04-02T01:55:31;17.25;13.00;7.00
78512;PMS5003;67809;55.034;73.462;2023-04-02T01:57:57;26.00;20.00;13.00
78512;PMS5003;67809;55.034;73.462;2023-04-02T02:00:24;17.25;12.50;7.50
78512;PMS5003;67809;55.034;73.462;2023-04-02T02:02:55;16.00;11.00;7.50
78512;PMS5003;67809;55.034;73.462;2023-04-02T02:05:26;14.00;11.00;7.00
78512;PMS5003;67809;55.034;73.462;2023-04-02T02:07:55;12.25;10.00;6.00
78512;PMS5003;67809;55.034;73.462;2023-04-02T02:10:24;16.00;13.00;7.00
78512;PMS5003;67809;55.034;73.462;2023-04-02T02:13:02;18.50;13.75;9.00
78512;PMS5003;67809;55.034;73.462;2023-04-02T02:15:30;11.00;9.75;6.00
78512;PMS5003;67809;55.034;73.462;2023-04-02T02:17:58;14.00;11.00;6.00
78512;PMS5003;67809;55.034;73.462;2023-04-02T02:20:26;17.00;13.00;9.00
78512;PMS5003;67809;55.034;73.462;2023-04-02T02:23:02;14.00;12.00;7.00
78512;PMS5003;67809;55.034;73.462;2023-04-02T02:25:32;14.00;12.00;6.25
78512;PMS5003;67809;55.034;73.462;2023-04-02T02:28:11;16.00;12.33;8.00
78512;PMS5003;67809;55.034;73.462;2023-04-02T02:33:24;11.25;9.00;6.00
78512;PMS5003;67809;55.034;73.462;2023-04-02T02:35:59;12.00;10.00;6.00
78512;PMS5003;67809;55.034;73.462;2023-04-02T02:38:47;12.00;10.00;6.00
78512;PMS5003;67809;55.034;73.462;2023-04-02T02:46:36;12.00;9.50;6.00
78512;PMS5003;67809;55.034;73.462;2023-04-02T02:49:05;11.75;10.00;7.00
78512;PMS5003;67809;55.034;73.462;2023-04-02T02:51:43;14.00;10.75;5.25
78512;PMS5003;67809;55.034;73.462;2023-04-02T02:54:16;11.00;8.75;5.00
78512;PMS5003;67809;55.034;73.462;2023-04-02T02:56:47;12.00;9.33;5.33
78512;PMS5003;67809;55.034;73.462;2023-04-02T02:59:15;14.00;9.50;6.00
78512;PMS5003;67809;55.034;73.462;2023-04-02T03:01:42;16.50;12.00;6.50
78512;PMS5003;67809;55.034;73.462;2023-04-02T03:04:09;10.00;8.00;5.00
78512;PMS5003;67809;55.034;73.462;2023-04-02T03:06:36;11.00;8.00;5.50
78512;PMS5003;67809;55.034;73.462;2023-04-02T03:09:05;16.00;12.00;7.00
78512;PMS5003;67809;55.034;73.462;2023-04-02T03:11:48;12.50;9.75;5.00
78512;PMS5003;67809;55.034;73.462;2023-04-02T03:16:57;13.00;11.00;6.00
78512;PMS5003;67809;55.034;73.462;2023-04-02T03:21:53;13.00;10.75;7.00
78512;PMS5003;67809;55.034;73.462;2023-04-02T03:24:33;11.00;9.00;5.25
78512;PMS5003;67809;55.034;73.462;2023-04-02T03:27:02;10.33;8.33;4.67
78512;PMS5003;67809;55.034;73.462;2023-04-02T03:29:35;10.75;8.25;6.00
78512;PMS5003;67809;55.034;73.462;2023-04-02T03:34:50;9.00;7.75;5.00
78512;PMS5003;67809;55.034;73.462;2023-04-02T03:37:53;9.00;7.00;4.00
78512;PMS5003;67809;55.034;73.462;2023-04-02T03:40:17;10.00;7.00;4.25
78512;PMS5003;67809;55.034;73.462;2023-04-02T03:43:33;9.00;7.00;5.00
78512;PMS5003;67809;55.034;73.462;2023-04-02T03:45:36;7.50;6.00;4.00
78512;PMS5003;67809;55.034;73.462;2023-04-02T03:48:23;11.00;9.75;6.50
78512;PMS5003;67809;55.034;73.462;2023-04-02T03:50:54;10.00;7.00;5.00
78512;PMS5003;67809;55.034;73.462;2023-04-02T03:53:22;9.75;8.00;5.75
78512;PMS5003;67809;55.034;73.462;2023-04-02T03:56:00;8.50;6.50;5.00
78512;PMS5003;67809;55.034;73.462;2023-04-02T04:01:40;8.50;7.25;5.00
78512;PMS5003;67809;55.034;73.462;2023-04-02T04:04:06;8.00;7.00;5.00
78512;PMS5003;67809;55.034;73.462;2023-04-02T04:06:35;10.25;8.25;5.00
78512;PMS5003;67809;55.034;73.462;2023-04-02T04:09:31;14.00;9.00;6.00
78512;PMS5003;67809;55.034;73.462;2023-04-02T04:12:33;9.75;8.00;6.00
78512;PMS5003;67809;55.034;73.462;2023-04-02T04:14:53;11.00;9.00;5.00
78512;PMS5003;67809;55.034;73.462;2023-04-02T04:17:29;10.00;9.00;6.00
78512;PMS5003;67809;55.034;73.462;2023-04-02T04:20:02;11.00;9.00;5.00
78512;PMS5003;67809;55.034;73.462;2023-04-02T04:22:35;15.00;12.50;8.25
78512;PMS5003;67809;55.034;73.462;2023-04-02T04:25:25;10.00;8.00;5.25
78512;PMS5003;67809;55.034;73.462;2023-04-02T04:33:30;16.50;12.25;7.25
78512;PMS5003;67809;55.034;73.462;2023-04-02T04:36:02;11.00;7.25;6.00
78512;PMS5003;67809;55.034;73.462;2023-04-02T04:38:34;9.00;7.00;5.00
78512;PMS5003;67809;55.034;73.462;2023-04-02T04:41:13;6.75;5.50;3.00
78512;PMS5003;67809;55.034;73.462;2023-04-02T04:46:56;10.00;8.00;5.00
78512;PMS5003;67809;55.034;73.462;2023-04-02T04:52:11;9.00;7.00;4.00
78512;PMS5003;67809;55.034;73.462;2023-04-02T04:54:24;7.00;6.00;4.00
78512;PMS5003;67809;55.034;73.462;2023-04-02T04:57:00;8.00;7.00;4.00
78512;PMS5003;67809;55.034;73.462;2023-04-02T04:59:34;6.67;5.00;3.00
78512;PMS5003;67809;55.034;73.462;2023-04-02T05:02:07;16.00;12.00;8.00
78512;PMS5003;67809;55.034;73.462;2023-04-02T05:04:38;10.75;9.00;5.00
78512;PMS5003;67809;55.034;73.462;2023-04-02T05:07:12;8.50;7.00;4.00
78512;PMS5003;67809;55.034;73.462;2023-04-02T05:09:46;12.00;9.00;5.00
78512;PMS5003;67809;55.034;73.462;2023-04-02T05:12:36;7.75;6.75;4.00
78512;PMS5003;67809;55.034;73.462;2023-04-02T05:17:40;6.00;5.50;4.00
78512;PMS5003;67809;55.034;73.462;2023-04-02T05:20:17;7.00;6.00;4.00
78512;PMS5003;67809;55.034;73.462;2023-04-02T05:23:36;9.00;8.00;4.50
78512;PMS5003;67809;55.034;73.462;2023-04-02T05:25:36;7.00;5.00;4.00
78512;PMS5003;67809;55.034;73.462;2023-04-02T05:31:01;7.00;6.00;3.00
78512;PMS5003;67809;55.034;73.462;2023-04-02T05:33:31;7.00;6.00;4.00
78512;PMS5003;67809;55.034;73.462;2023-04-02T05:36:03;7.50;6.75;4.00
78512;PMS5003;67809;55.034;73.462;2023-04-02T05:38:35;6.00;5.00;4.00
78512;PMS5003;67809;55.034;73.462;2023-04-02T05:41:07;6.00;5.00;4.00
78512;PMS5003;67809;55.034;73.462;2023-04-02T05:43:42;8.00;7.00;5.00
78512;PMS5003;67809;55.034;73.462;2023-04-02T05:46:19;9.00;7.00;4.00
78512;PMS5003;67809;55.034;73.462;2023-04-02T05:48:51;6.75;6.00;4.00
78512;PMS5003;67809;55.034;73.462;2023-04-02T05:51:26;8.00;7.00;5.00
78512;PMS5003;67809;55.034;73.462;2023-04-02T05:53:55;8.25;7.00;4.00
78512;PMS5003;67809;55.034;73.462;2023-04-02T05:56:40;8.00;6.25;5.00
78512;PMS5003;67809;55.034;73.462;2023-04-02T05:59:18;7.00;6.00;4.00
78512;PMS5003;67809;55.034;73.462;2023-04-02T06:01:47;7.00;6.00;4.00
78512;PMS5003;67809;55.034;73.462;2023-04-02T06:04:29;6.75;5.50;3.25
78512;PMS5003;67809;55.034;73.462;2023-04-02T06:07:07;6.75;5.00;3.75
78512;PMS5003;67809;55.034;73.462;2023-04-02T06:09:53;9.33;8.00;5.00
78512;PMS5003;67809;55.034;73.462;2023-04-02T06:12:32;6.00;5.00;3.00
78512;PMS5003;67809;55.034;73.462;2023-04-02T06:15:04;11.00;9.00;6.00
78512;PMS5003;67809;55.034;73.462;2023-04-02T06:17:32;12.00;9.00;5.00
78512;PMS5003;67809;55.034;73.462;2023-04-02T06:20:08;18.00;14.75;9.00
78512;PMS5003;67809;55.034;73.462;2023-04-02T06:22:43;21.75;18.00;12.00
78512;PMS5003;67809;55.034;73.462;2023-04-02T06:25:24;20.00;14.00;9.50
78512;PMS5003;67809;55.034;73.462;2023-04-02T06:28:04;14.00;10.50;7.00
78512;PMS5003;67809;55.034;73.462;2023-04-02T06:30:31;11.00;10.00;6.00
78512;PMS5003;67809;55.034;73.462;2023-04-02T06:32:59;13.50;10.25;6.75
78512;PMS5003;67809;55.034;73.462;2023-04-02T06:35:38;21.25;16.00;10.00
78512;PMS5003;67809;55.034;73.462;2023-04-02T06:38:04;13.00;9.00;6.00
78512;PMS5003;67809;55.034;73.462;2023-04-02T06:40:53;10.00;8.00;5.00
78512;PMS5003;67809;55.034;73.462;2023-04-02T06:46:33;11.00;9.00;5.75
78512;PMS5003;67809;55.034;73.462;2023-04-02T06:51:34;12.00;9.00;6.00
78512;PMS5003;67809;55.034;73.462;2023-04-02T06:54:03;10.00;7.00;5.00
78512;PMS5003;67809;55.034;73.462;2023-04-02T06:58:57;11.00;8.00;5.00
78512;PMS5003;67809;55.034;73.462;2023-04-02T07:01:25;7.00;6.00;5.00
78512;PMS5003;67809;55.034;73.462;2023-04-02T07:03:59;10.25;8.00;5.00
78512;PMS5003;67809;55.034;73.462;2023-04-02T07:06:39;8.50;7.00;4.00
78512;PMS5003;67809;55.034;73.462;2023-04-02T07:09:05;9.00;7.00;4.00
78512;PMS5003;67809;55.034;73.462;2023-04-02T07:11:33;10.00;7.00;4.00
78512;PMS5003;67809;55.034;73.462;2023-04-02T07:14:02;8.75;7.00;4.00
78512;PMS5003;67809;55.034;73.462;2023-04-02T07:16:29;8.00;5.75;4.00
78512;PMS5003;67809;55.034;73.462;2023-04-02T07:18:56;8.00;7.00;3.67
78512;PMS5003;67809;55.034;73.462;2023-04-02T07:21:28;9.00;7.00;5.00
78512;PMS5003;67809;55.034;73.462;2023-04-02T07:23:55;7.00;6.00;4.00
78512;PMS5003;67809;55.034;73.462;2023-04-02T07:26:23;10.00;7.00;4.00
78512;PMS5003;67809;55.034;73.462;2023-04-02T07:28:50;9.00;7.00;4.00
78512;PMS5003;67809;55.034;73.462;2023-04-02T07:31:17;6.00;5.00;3.00
78512;PMS5003;67809;55.034;73.462;2023-04-02T07:33:44;6.00;5.00;3.00
78512;PMS5003;67809;55.034;73.462;2023-04-02T07:36:14;7.00;6.00;4.00
78512;PMS5003;67809;55.034;73.462;2023-04-02T07:38:40;8.00;6.00;3.50
78512;PMS5003;67809;55.034;73.462;2023-04-02T07:41:06;8.00;7.00;4.00
78512;PMS5003;67809;55.034;73.462;2023-04-02T07:43:33;6.75;6.00;3.00
78512;PMS5003;67809;55.034;73.462;2023-04-02T07:46:00;8.00;6.00;3.00
78512;PMS5003;67809;55.034;73.462;2023-04-02T07:48:26;5.75;4.75;3.00
78512;PMS5003;67809;55.034;73.462;2023-04-02T07:50:52;6.00;5.00;3.00
78512;PMS5003;67809;55.034;73.462;2023-04-02T07:53:26;5.00;4.25;3.00
78512;PMS5003;67809;55.034;73.462;2023-04-02T07:55:54;6.75;4.75;3.50
78512;PMS5003;67809;55.034;73.462;2023-04-02T07:58:21;7.75;5.75;4.00
78512;PMS5003;67809;55.034;73.462;2023-04-02T08:00:53;5.67;5.00;3.00
78512;PMS5003;67809;55.034;73.462;2023-04-02T08:03:24;7.00;6.00;3.00
78512;PMS5003;67809;55.034;73.462;2023-04-02T08:05:53;6.25;6.00;4.00
78512;PMS5003;67809;55.034;73.462;2023-04-02T08:08:20;8.00;6.00;4.00
78512;PMS5003;67809;55.034;73.462;2023-04-02T08:10:47;7.67;5.67;3.00
78512;PMS5003;67809;55.034;73.462;2023-04-02T08:13:18;8.00;6.00;4.00
78512;PMS5003;67809;55.034;73.462;2023-04-02T08:15:50;7.00;6.00;4.00
78512;PMS5003;67809;55.034;73.462;2023-04-02T08:18:16;62.75;44.50;25.00
78512;PMS5003;67809;55.034;73.462;2023-04-02T08:20:45;30.25;23.00;13.00
78512;PMS5003;67809;55.034;73.462;2023-04-02T08:23:12;12.75;9.00;6.00
78512;PMS5003;67809;55.034;73.462;2023-04-02T08:25:40;11.00;9.00;5.00
78512;PMS5003;67809;55.034;73.462;2023-04-02T08:28:06;20.75;16.50;8.75
78512;PMS5003;67809;55.034;73.462;2023-04-02T08:30:32;19.50;16.00;10.25
78512;PMS5003;67809;55.034;73.462;2023-04-02T08:32:58;22.50;17.75;11.00
78512;PMS5003;67809;55.034;73.462;2023-04-02T08:35:25;13.50;11.50;7.00
78512;PMS5003;67809;55.034;73.462;2023-04-02T08:37:51;21.50;15.75;9.75
78512;PMS5003;67809;55.034;73.462;2023-04-02T08:40:19;19.00;16.33;10.00
78512;PMS5003;67809;55.034;73.462;2023-04-02T08:48:26;19.50;16.00;9.75
78512;PMS5003;67809;55.034;73.462;2023-04-02T08:52:41;36.25;29.00;19.00
78512;PMS5003;67809;55.034;73.462;2023-04-02T09:00:41;10.00;8.50;5.00
78512;PMS5003;67809;55.034;73.462;2023-04-02T09:05:53;12.25;11.00;6.50
78512;PMS5003;67809;55.034;73.462;2023-04-02T09:08:21;19.50;17.25;11.50
78512;PMS5003;67809;55.034;73.462;2023-04-02T09:11:09;17.00;15.00;11.00
78512;PMS5003;67809;55.034;73.462;2023-04-02T09:13:42;8.00;7.00;5.00
78512;PMS5003;67809;55.034;73.462;2023-04-02T09:16:15;6.50;5.00;4.00
78512;PMS5003;67809;55.034;73.462;2023-04-02T09:18:42;7.00;5.50;4.00
78512;PMS5003;67809;55.034;73.462;2023-04-02T09:23:48;5.00;4.25;3.00
78512;PMS5003;67809;55.034;73.462;2023-04-02T09:26:25;5.25;4.50;2.75
78512;PMS5003;67809;55.034;73.462;2023-04-02T09:28:52;15.25;12.25;6.75
78512;PMS5003;67809;55.034;73.462;2023-04-02T09:31:25;11.00;9.00;5.75
78512;PMS5003;67809;55.034;73.462;2023-04-02T09:34:01;7.00;7.00;4.00
78512;PMS5003;67809;55.034;73.462;2023-04-02T09:36:47;15.00;12.50;8.00
78512;PMS5003;67809;55.034;73.462;2023-04-02T09:39:16;10.25;8.50;5.75
78512;PMS5003;67809;55.034;73.462;2023-04-02T09:41:43;18.33;16.00;11.00
78512;PMS5003;67809;55.034;73.462;2023-04-02T09:49:14;9.75;8.50;6.00
78512;PMS5003;67809;55.034;73.462;2023-04-02T09:51:42;8.00;7.00;4.00
78512;PMS5003;67809;55.034;73.462;2023-04-02T09:54:15;6.75;5.25;4.00
78512;PMS5003;67809;55.034;73.462;2023-04-02T09:57:01;11.00;10.00;6.00
78512;PMS5003;67809;55.034;73.462;2023-04-02T09:59:27;10.00;9.00;6.50
78512;PMS5003;67809;55.034;73.462;2023-04-02T10:10:17;9.00;7.75;4.75
78512;PMS5003;67809;55.034;73.462;2023-04-02T10:12:44;11.00;9.00;6.00
78512;PMS5003;67809;55.034;73.462;2023-04-02T10:15:16;5.00;4.00;3.00
78512;PMS5003;67809;55.034;73.462;2023-04-02T10:17:45;9.00;7.50;5.00
78512;PMS5003;67809;55.034;73.462;2023-04-02T10:20:18;12.00;9.50;6.00
78512;PMS5003;67809;55.034;73.462;2023-04-02T10:22:47;13.00;11.00;7.00
78512;PMS5003;67809;55.034;73.462;2023-04-02T10:25:14;7.75;7.00;4.00
78512;PMS5003;67809;55.034;73.462;2023-04-02T10:27:57;8.25;8.00;5.00
78512;PMS5003;67809;55.034;73.462;2023-04-02T10:30:29;21.00;17.00;11.00
78512;PMS5003;67809;55.034;73.462;2023-04-02T10:32:59;13.00;11.00;7.00
78512;PMS5003;67809;55.034;73.462;2023-04-02T10:41:43;19.00;16.00;11.00
78512;PMS5003;67809;55.034;73.462;2023-04-02T10:43:52;14.00;12.25;8.00
78512;PMS5003;67809;55.034;73.462;2023-04-02T10:54:20;11.00;9.75;6.50
78512;PMS5003;67809;55.034;73.462;2023-04-02T10:56:52;9.00;7.25;5.00
78512;PMS5003;67809;55.034;73.462;2023-04-02T10:59:23;11.00;9.00;6.00
78512;PMS5003;67809;55.034;73.462;2023-04-02T11:01:51;9.00;7.67;5.00
78512;PMS5003;67809;55.034;73.462;2023-04-02T11:04:22;10.00;9.00;6.00
78512;PMS5003;67809;55.034;73.462;2023-04-02T11:06:54;8.50;7.75;5.00
78512;PMS5003;67809;55.034;73.462;2023-04-02T11:09:36;10.00;8.50;6.00
78512;PMS5003;67809;55.034;73.462;2023-04-02T11:12:04;7.25;6.50;4.00
78512;PMS5003;67809;55.034;73.462;2023-04-02T11:14:42;7.00;7.00;5.00
78512;PMS5003;67809;55.034;73.462;2023-04-02T11:17:10;6.00;5.75;4.00
78512;PMS5003;67809;55.034;73.462;2023-04-02T11:19:38;8.25;7.75;5.00
78512;PMS5003;67809;55.034;73.462;2023-04-02T11:22:14;7.00;5.25;4.00
78512;PMS5003;67809;55.034;73.462;2023-04-02T11:24:42;8.00;7.00;4.00
78512;PMS5003;67809;55.034;73.462;2023-04-02T11:29:36;8.00;7.00;5.00
78512;PMS5003;67809;55.034;73.462;2023-04-02T11:32:13;8.50;8.00;6.00
78512;PMS5003;67809;55.034;73.462;2023-04-02T11:37:08;10.00;9.00;6.00
78512;PMS5003;67809;55.034;73.462;2023-04-02T11:42:30;8.00;7.67;5.00
78512;PMS5003;67809;55.034;73.462;2023-04-02T11:50:34;8.50;7.25;4.00
78512;PMS5003;67809;55.034;73.462;2023-04-02T11:53:01;9.33;7.33;4.00
78512;PMS5003;67809;55.034;73.462;2023-04-02T11:55:29;9.50;7.00;5.00
78512;PMS5003;67809;55.034;73.462;2023-04-02T11:57:59;15.50;13.50;8.00
78512;PMS5003;67809;55.034;73.462;2023-04-02T12:03:03;11.00;8.67;6.00
78512;PMS5003;67809;55.034;73.462;2023-04-02T12:05:38;13.00;10.00;6.00
78512;PMS5003;67809;55.034;73.462;2023-04-02T12:08:14;10.00;9.00;5.00
78512;PMS5003;67809;55.034;73.462;2023-04-02T12:10:51;11.00;8.00;5.00
78512;PMS5003;67809;55.034;73.462;2023-04-02T12:13:19;8.00;7.00;4.33
78512;PMS5003;67809;55.034;73.462;2023-04-02T12:15:49;7.50;6.50;4.25
78512;PMS5003;67809;55.034;73.462;2023-04-02T12:18:22;9.00;7.00;4.50
78512;PMS5003;67809;55.034;73.462;2023-04-02T12:20:52;9.75;8.00;4.75
78512;PMS5003;67809;55.034;73.462;2023-04-02T12:23:38;8.00;7.00;4.00
78512;PMS5003;67809;55.034;73.462;2023-04-02T12:26:22;8.00;7.00;4.00
78512;PMS5003;67809;55.034;73.462;2023-04-02T12:28:49;9.00;7.00;4.00
78512;PMS5003;67809;55.034;73.462;2023-04-02T12:31:15;7.00;6.00;4.00
78512;PMS5003;67809;55.034;73.462;2023-04-02T12:33:45;14.00;12.00;7.00
78512;PMS5003;67809;55.034;73.462;2023-04-02T12:36:20;12.25;9.75;6.00
78512;PMS5003;67809;55.034;73.462;2023-04-02T12:38:54;12.00;10.00;7.00
78512;PMS5003;67809;55.034;73.462;2023-04-02T12:41:31;12.25;11.00;7.50
78512;PMS5003;67809;55.034;73.462;2023-04-02T12:44:06;11.00;9.00;5.00
78512;PMS5003;67809;55.034;73.462;2023-04-02T12:46:38;13.00;10.00;6.00
78512;PMS5003;67809;55.034;73.462;2023-04-02T12:51:43;12.00;9.00;7.00
78512;PMS5003;67809;55.034;73.462;2023-04-02T12:54:15;13.00;10.00;5.00
78512;PMS5003;67809;55.034;73.462;2023-04-02T12:56:42;10.00;9.00;6.00
78512;PMS5003;67809;55.034;73.462;2023-04-02T12:59:28;11.00;9.00;6.00
78512;PMS5003;67809;55.034;73.462;2023-04-02T13:01:55;9.00;8.00;5.00
78512;PMS5003;67809;55.034;73.462;2023-04-02T13:04:21;12.00;10.00;6.00
78512;PMS5003;67809;55.034;73.462;2023-04-02T13:06:52;11.75;9.75;7.00
78512;PMS5003;67809;55.034;73.462;2023-04-02T13:09:30;10.00;8.00;5.00
78512;PMS5003;67809;55.034;73.462;2023-04-02T13:12:03;13.75;11.00;7.00
78512;PMS5003;67809;55.034;73.462;2023-04-02T13:14:35;12.33;9.67;6.00
78512;PMS5003;67809;55.034;73.462;2023-04-02T13:17:02;16.00;12.75;8.00
78512;PMS5003;67809;55.034;73.462;2023-04-02T13:19:31;17.00;14.00;8.50
78512;PMS5003;67809;55.034;73.462;2023-04-02T13:21:59;12.25;10.75;7.00
78512;PMS5003;67809;55.034;73.462;2023-04-02T13:24:27;13.00;11.00;7.00
78512;PMS5003;67809;55.034;73.462;2023-04-02T13:26:54;12.00;10.00;6.00
78512;PMS5003;67809;55.034;73.462;2023-04-02T13:31:51;13.00;11.00;6.00
78512;PMS5003;67809;55.034;73.462;2023-04-02T13:34:23;11.00;9.00;6.00
78512;PMS5003;67809;55.034;73.462;2023-04-02T13:36:49;8.00;6.75;5.00
78512;PMS5003;67809;55.034;73.462;2023-04-02T13:39:15;9.00;8.00;5.00
78512;PMS5003;67809;55.034;73.462;2023-04-02T13:41:46;11.00;9.00;6.00
78512;PMS5003;67809;55.034;73.462;2023-04-02T13:44:20;11.25;9.25;5.00
78512;PMS5003;67809;55.034;73.462;2023-04-02T13:46:46;10.00;9.00;6.00
78512;PMS5003;67809;55.034;73.462;2023-04-02T13:49:12;11.25;10.00;8.00
78512;PMS5003;67809;55.034;73.462;2023-04-02T13:51:49;18.75;14.25;9.00
78512;PMS5003;67809;55.034;73.462;2023-04-02T13:56:42;14.00;11.00;7.00
78512;PMS5003;67809;55.034;73.462;2023-04-02T13:59:14;11.25;9.25;7.00
78512;PMS5003;67809;55.034;73.462;2023-04-02T14:01:40;13.75;11.25;7.25
78512;PMS5003;67809;55.034;73.462;2023-04-02T14:04:08;14.00;12.00;8.00
78512;PMS5003;67809;55.034;73.462;2023-04-02T14:06:41;13.00;11.00;6.75
78512;PMS5003;67809;55.034;73.462;2023-04-02T14:09:16;11.25;9.25;7.00
78512;PMS5003;67809;55.034;73.462;2023-04-02T14:12:19;14.00;11.00;6.00
78512;PMS5003;67809;55.034;73.462;2023-04-02T14:23:05;13.00;11.25;7.00
78512;PMS5003;67809;55.034;73.462;2023-04-02T14:28:23;20.00;15.25;10.00
78512;PMS5003;67809;55.034;73.462;2023-04-02T14:30:57;25.25;19.75;12.00
78512;PMS5003;67809;55.034;73.462;2023-04-02T14:33:32;28.67;22.67;13.33
78512;PMS5003;67809;55.034;73.462;2023-04-02T14:36:14;29.25;23.00;14.75
78512;PMS5003;67809;55.034;73.462;2023-04-02T14:38:49;35.00;26.00;15.00
78512;PMS5003;67809;55.034;73.462;2023-04-02T14:41:23;29.00;22.00;13.00
78512;PMS5003;67809;55.034;73.462;2023-04-02T14:43:55;26.75;22.00;15.00
78512;PMS5003;67809;55.034;73.462;2023-04-02T14:46:24;25.75;22.25;15.00
78512;PMS5003;67809;55.034;73.462;2023-04-02T15:02:03;41.00;31.00;21.00
78512;PMS5003;67809;55.034;73.462;2023-04-02T15:04:36;36.33;29.00;19.00
78512;PMS5003;67809;55.034;73.462;2023-04-02T15:07:19;37.00;29.00;19.00
78512;PMS5003;67809;55.034;73.462;2023-04-02T15:10:07;38.25;30.50;19.50
78512;PMS5003;67809;55.034;73.462;2023-04-02T15:12:36;39.00;30.00;20.00
78512;PMS5003;67809;55.034;73.462;2023-04-02T15:17:50;38.00;30.00;18.50
78512;PMS5003;67809;55.034;73.462;2023-04-02T15:20:17;42.50;33.25;21.00
78512;PMS5003;67809;55.034;73.462;2023-04-02T15:23:00;40.50;30.75;18.00
78512;PMS5003;67809;55.034;73.462;2023-04-02T15:25:51;39.00;30.00;19.00
78512;PMS5003;67809;55.034;73.462;2023-04-02T15:31:12;37.00;30.00;19.00
78512;PMS5003;67809;55.034;73.462;2023-04-02T15:33:44;35.00;28.00;17.00
78512;PMS5003;67809;55.034;73.462;2023-04-02T15:41:56;36.50;29.00;19.00
78512;PMS5003;67809;55.034;73.462;2023-04-02T15:44:26;36.00;29.00;19.00
78512;PMS5003;67809;55.034;73.462;2023-04-02T15:46:55;38.50;30.00;19.00
78512;PMS5003;67809;55.034;73.462;2023-04-02T15:49:36;34.25;28.00;18.00
78512;PMS5003;67809;55.034;73.462;2023-04-02T16:00:37;44.00;34.00;21.00
78512;PMS5003;67809;55.034;73.462;2023-04-02T16:05:46;37.50;30.00;20.00
78512;PMS5003;67809;55.034;73.462;2023-04-02T16:10:54;33.00;25.75;16.00
78512;PMS5003;67809;55.034;73.462;2023-04-02T16:13:31;33.00;25.00;16.75
78512;PMS5003;67809;55.034;73.462;2023-04-02T16:16:08;27.00;22.67;15.00
78512;PMS5003;67809;55.034;73.462;2023-04-02T16:21:22;18.25;14.50;10.00
78512;PMS5003;67809;55.034;73.462;2023-04-02T16:23:49;21.00;16.75;10.00
78512;PMS5003;67809;55.034;73.462;2023-04-02T16:49:35;27.00;21.00;12.00
78512;PMS5003;67809;55.034;73.462;2023-04-02T16:55:15;11.67;9.00;6.00
78512;PMS5003;67809;55.034;73.462;2023-04-02T16:57:57;12.00;10.75;7.00
78512;PMS5003;67809;55.034;73.462;2023-04-02T17:06:05;16.00;12.67;7.00
78512;PMS5003;67809;55.034;73.462;2023-04-02T17:11:06;16.00;12.00;7.25
78512;PMS5003;67809;55.034;73.462;2023-04-02T17:16:19;16.00;14.00;9.00
78512;PMS5003;67809;55.034;73.462;2023-04-02T17:18:56;20.00;14.00;9.00
78512;PMS5003;67809;55.034;73.462;2023-04-02T17:21:23;15.25;12.00;8.00
78512;PMS5003;67809;55.034;73.462;2023-04-02T17:23:57;14.25;11.00;8.00
78512;PMS5003;67809;55.034;73.462;2023-04-02T17:26:26;15.75;13.75;9.00
78512;PMS5003;67809;55.034;73.462;2023-04-02T17:28:53;12.00;10.00;6.25
78512;PMS5003;67809;55.034;73.462;2023-04-02T17:31:30;14.00;12.00;8.00
78512;PMS5003;67809;55.034;73.462;2023-04-02T17:34:00;14.00;12.00;7.00
78512;PMS5003;67809;55.034;73.462;2023-04-02T17:39:57;11.25;10.00;7.00
78512;PMS5003;67809;55.034;73.462;2023-04-02T17:42:13;12.00;9.50;6.00
78512;PMS5003;67809;55.034;73.462;2023-04-02T17:47:34;12.00;9.00;5.00
78512;PMS5003;67809;55.034;73.462;2023-04-02T17:52:38;10.00;8.00;4.00
78512;PMS5003;67809;55.034;73.462;2023-04-02T18:10:27;10.75;9.50;6.00
78512;PMS5003;67809;55.034;73.462;2023-04-02T18:13:23;12.00;10.00;6.00
78512;PMS5003;67809;55.034;73.462;2023-04-02T18:16:20;9.67;8.00;5.33
78512;PMS5003;67809;55.034;73.462;2023-04-02T18:18:57;13.75;10.50;6.75
78512;PMS5003;67809;55.034;73.462;2023-04-02T18:21:30;10.00;8.50;5.75
78512;PMS5003;67809;55.034;73.462;2023-04-02T18:31:51;10.00;8.00;5.00
78512;PMS5003;67809;55.034;73.462;2023-04-02T18:34:25;8.50;6.75;4.00
78512;PMS5003;67809;55.034;73.462;2023-04-02T18:42:16;11.00;9.00;4.50
78512;PMS5003;67809;55.034;73.462;2023-04-02T18:45:06;8.50;7.75;5.00
78512;PMS5003;67809;55.034;73.462;2023-04-02T18:50:37;7.50;6.00;4.00
78512;PMS5003;67809;55.034;73.462;2023-04-02T18:53:16;10.00;8.00;5.00
78512;PMS5003;67809;55.034;73.462;2023-04-02T18:55:53;10.00;8.00;4.00